createdAt,value
2023-01-31T00:04:59.987Z,1024.15
2023-01-31T00:09:59.146Z,1024.07
2023-01-31T00:15:00.407Z,1024.17
2023-01-31T00:20:02.510Z,1024.05
2023-01-31T00:25:02.973Z,1024.03
2023-01-31T00:30:02.118Z,1024.03
2023-01-31T00:35:03.316Z,1023.98
2023-01-31T00:40:05.531Z,1023.99
2023-01-31T00:45:04.681Z,1024.01
2023-01-31T00:50:04.937Z,1024.05
2023-01-31T00:55:06.070Z,1024.14
2023-01-31T01:00:07.169Z,1024.09
2023-01-31T01:05:10.341Z,1024.01
2023-01-31T01:10:09.567Z,1024.03
2023-01-31T01:15:11.700Z,1024.08
2023-01-31T01:20:10.930Z,1023.99
2023-01-31T01:25:13.133Z,1023.99
2023-01-31T01:30:12.593Z,1023.90
2023-01-31T01:35:15.203Z,1024.00
2023-01-31T01:40:15.602Z,1024.08
2023-01-31T01:45:14.886Z,1024.17
2023-01-31T01:50:16.035Z,1024.12
2023-01-31T01:55:19.380Z,1024.14
2023-01-31T02:00:16.628Z,1024.14
2023-01-31T02:05:18.471Z,1024.05
2023-01-31T02:10:17.751Z,1024.05
2023-01-31T02:15:19.260Z,1024.06
2023-01-31T02:20:18.536Z,1024.07
2023-01-31T02:25:20.110Z,1024.01
2023-01-31T02:30:24.044Z,1024.02
2023-01-31T02:35:19.409Z,1023.97
2023-01-31T02:40:18.719Z,1023.99
2023-01-31T02:45:20.616Z,1023.99
2023-01-31T02:50:20.661Z,1024.03
2023-01-31T02:55:20.619Z,1024.09
2023-01-31T03:00:21.779Z,1024.14
2023-01-31T03:05:22.264Z,1024.23
2023-01-31T03:10:22.764Z,1024.26
2023-01-31T03:15:22.268Z,1024.35
2023-01-31T03:20:21.784Z,1024.34
2023-01-31T03:25:24.315Z,1024.35
2023-01-31T03:30:23.762Z,1024.39
2023-01-31T03:35:26.201Z,1024.39
2023-01-31T03:40:25.373Z,1024.45
2023-01-31T03:45:27.509Z,1024.42
2023-01-31T03:50:26.591Z,1024.51
2023-01-31T03:55:29.766Z,1024.38
2023-01-31T04:00:28.918Z,1024.43
2023-01-31T04:05:30.038Z,1024.43
2023-01-31T04:10:31.230Z,1024.59
2023-01-31T04:15:32.360Z,1024.60
2023-01-31T04:20:33.600Z,1024.65
2023-01-31T04:25:34.760Z,1024.76
2023-01-31T04:30:35.887Z,1024.76
2023-01-31T04:35:37.025Z,1024.76
2023-01-31T04:40:39.162Z,1024.81
2023-01-31T04:45:39.411Z,1024.78
2023-01-31T04:50:39.550Z,1024.90
2023-01-31T04:55:38.676Z,1024.77
2023-01-31T05:00:40.896Z,1024.88
2023-01-31T05:05:40.045Z,1025.01
2023-01-31T05:10:40.176Z,1025.03
2023-01-31T05:15:42.328Z,1025.09
2023-01-31T05:20:43.227Z,1025.15
2023-01-31T05:25:43.396Z,1025.17
2023-01-31T05:30:42.534Z,1025.31
2023-01-31T05:35:43.758Z,1025.30
2023-01-31T05:40:45.002Z,1025.38
2023-01-31T05:45:46.107Z,1025.46
2023-01-31T05:50:47.229Z,1025.45
2023-01-31T05:55:48.339Z,1025.51
2023-01-31T06:00:49.615Z,1025.46
2023-01-31T06:05:50.727Z,1025.47
2023-01-31T06:10:52.853Z,1025.58
2023-01-31T06:15:51.997Z,1025.50
2023-01-31T06:20:53.194Z,1025.36
2023-01-31T06:25:54.673Z,1025.43
2023-01-31T06:30:55.054Z,1025.56
2023-01-31T06:35:54.221Z,1025.58
2023-01-31T06:40:55.500Z,1025.58
2023-01-31T06:45:57.639Z,1025.53
2023-01-31T06:50:56.840Z,1025.59
2023-01-31T06:55:57.993Z,1025.59
2023-01-31T07:00:58.102Z,1025.67
2023-01-31T07:06:00.514Z,1025.75
2023-01-31T07:10:59.672Z,1025.81
2023-01-31T07:16:00.931Z,1025.87
2023-01-31T07:21:03.175Z,1025.85
2023-01-31T07:26:06.442Z,1025.84
2023-01-31T07:31:03.906Z,1025.80
2023-01-31T07:36:03.100Z,1025.74
2023-01-31T07:41:04.284Z,1025.74
2023-01-31T07:46:07.430Z,1025.79
2023-01-31T07:51:06.563Z,1025.84
2023-01-31T07:56:08.742Z,1025.81
2023-01-31T08:01:07.917Z,1025.70
2023-01-31T08:06:10.204Z,1025.70
2023-01-31T08:11:09.627Z,1025.61
2023-01-31T08:16:10.724Z,1025.67
2023-01-31T08:21:12.035Z,1025.64
2023-01-31T08:26:13.270Z,1025.60
2023-01-31T08:31:15.611Z,1025.59
2023-01-31T08:36:15.835Z,1025.63
2023-01-31T08:41:15.015Z,1025.57
2023-01-31T08:46:17.229Z,1025.56
2023-01-31T08:51:17.347Z,1025.62
2023-01-31T08:56:16.515Z,1025.61
2023-01-31T09:01:17.752Z,1025.49
2023-01-31T09:06:18.953Z,1025.52
2023-01-31T09:11:21.054Z,1025.48
2023-01-31T09:16:20.200Z,1025.53
2023-01-31T09:21:21.322Z,1025.60
2023-01-31T09:26:24.522Z,1025.45
2023-01-31T09:31:23.727Z,1025.49
2023-01-31T09:36:25.874Z,1025.40
2023-01-31T09:41:26.025Z,1025.39
2023-01-31T09:46:26.195Z,1025.43
2023-01-31T09:51:26.326Z,1025.34
2023-01-31T09:56:26.479Z,1025.33
2023-01-31T10:01:25.576Z,1025.29
2023-01-31T10:06:26.696Z,1025.18
2023-01-31T10:11:28.129Z,1025.28
2023-01-31T10:16:30.468Z,1025.12
2023-01-31T10:21:30.582Z,1025.02
2023-01-31T10:26:30.801Z,1024.89
2023-01-31T10:31:31.656Z,1024.76
2023-01-31T10:36:31.643Z,1024.75
2023-01-31T10:41:31.249Z,1024.65
2023-01-31T10:46:30.779Z,1024.56
2023-01-31T10:51:32.909Z,1024.53
2023-01-31T10:56:32.014Z,1024.41
2023-01-31T11:01:34.104Z,1024.42
2023-01-31T11:06:33.257Z,1024.17
2023-01-31T11:11:34.469Z,1024.20
2023-01-31T11:16:35.605Z,1024.24
2023-01-31T11:21:37.762Z,1024.20
2023-01-31T11:26:38.002Z,1024.13
2023-01-31T11:31:37.137Z,1024.11
2023-01-31T11:36:39.283Z,1024.07
2023-01-31T11:41:38.408Z,1024.00
2023-01-31T11:46:40.555Z,1023.94
2023-01-31T11:51:39.672Z,1023.80
2023-01-31T11:56:40.779Z,1023.75
2023-01-31T12:01:41.907Z,1023.83
2023-01-31T12:06:43.069Z,1023.63
2023-01-31T12:11:45.202Z,1023.62
2023-01-31T12:16:43.376Z,1023.50
2023-01-31T12:21:46.514Z,1023.36
2023-01-31T12:26:45.725Z,1023.18
2023-01-31T12:31:47.196Z,1023.07
2023-01-31T12:36:47.385Z,1023.16
2023-01-31T12:41:46.485Z,1023.12
2023-01-31T12:46:54.791Z,1023.19
2023-01-31T12:51:48.608Z,1023.33
2023-01-31T12:56:50.240Z,1023.18
2023-01-31T13:01:49.407Z,1023.34
2023-01-31T13:06:50.738Z,1023.37
2023-01-31T13:11:52.847Z,1023.37
2023-01-31T13:16:54.024Z,1023.25
2023-01-31T13:21:54.195Z,1023.26
2023-01-31T13:26:54.287Z,1023.16
2023-01-31T13:31:53.408Z,1023.21
2023-01-31T13:36:54.514Z,1023.19
2023-01-31T13:41:56.626Z,1023.28
2023-01-31T13:46:56.812Z,1023.21
2023-01-31T13:51:55.965Z,1023.19
2023-01-31T13:56:58.095Z,1023.27
2023-01-31T14:01:57.247Z,1023.20
2023-01-31T14:07:00.388Z,1023.12
2023-01-31T14:11:59.524Z,1023.17
2023-01-31T14:17:01.629Z,1023.28
2023-01-31T14:22:00.755Z,1023.32
2023-01-31T14:27:02.926Z,1023.35
2023-01-31T14:32:04.144Z,1023.39
2023-01-31T14:37:03.259Z,1023.42
2023-01-31T14:42:04.365Z,1023.52
2023-01-31T14:47:07.947Z,1023.49
2023-01-31T14:52:06.212Z,1023.47
2023-01-31T14:57:05.645Z,1023.41
2023-01-31T15:02:07.790Z,1023.24
2023-01-31T15:07:08.884Z,1023.25
2023-01-31T15:12:09.036Z,1023.18
2023-01-31T15:17:11.130Z,1023.17
2023-01-31T15:22:08.098Z,1023.15
2023-01-31T15:27:10.271Z,1023.00
2023-01-31T15:32:09.435Z,1022.74
2023-01-31T15:37:10.597Z,1022.68
2023-01-31T15:42:12.787Z,1022.77
2023-01-31T15:47:12.935Z,1022.75
2023-01-31T15:52:13.152Z,1022.75
2023-01-31T15:57:13.323Z,1022.59
2023-01-31T16:02:12.500Z,1022.99
2023-01-31T16:07:14.937Z,1022.88
2023-01-31T16:12:15.058Z,1023.11
2023-01-31T16:17:15.218Z,1023.18
2023-01-31T16:22:15.350Z,1023.25
2023-01-31T16:27:14.489Z,1023.26
2023-01-31T16:32:15.657Z,1023.31
2023-01-31T16:37:17.867Z,1023.26
2023-01-31T16:42:16.995Z,1023.18
2023-01-31T16:47:19.266Z,1023.29
2023-01-31T16:52:19.436Z,1023.34
2023-01-31T16:57:18.568Z,1023.22
2023-01-31T17:02:19.711Z,1023.40
2023-01-31T17:07:21.098Z,1023.46
2023-01-31T17:12:20.299Z,1022.95
2023-01-31T17:17:22.137Z,1023.17
2023-01-31T17:22:22.749Z,1023.09
2023-01-31T17:27:21.978Z,1023.30
2023-01-31T17:32:23.471Z,1023.41
2023-01-31T17:37:31.569Z,1023.74
2023-01-31T17:42:25.160Z,1023.60
2023-01-31T17:47:25.484Z,1023.79
2023-01-31T17:52:23.729Z,1023.89
2023-01-31T17:57:25.120Z,1023.60
2023-01-31T18:02:26.987Z,1023.84
2023-01-31T18:07:26.463Z,1024.13
2023-01-31T18:12:25.990Z,1024.18
2023-01-31T18:17:25.227Z,1024.15
2023-01-31T18:22:25.757Z,1024.21
2023-01-31T18:27:28.222Z,1024.29
2023-01-31T18:32:27.723Z,1024.13
2023-01-31T18:37:27.175Z,1024.13
2023-01-31T18:42:29.689Z,1024.06
2023-01-31T18:47:33.078Z,1024.25
2023-01-31T18:52:30.347Z,1024.34
2023-01-31T18:57:32.837Z,1024.20
2023-01-31T19:02:32.437Z,1023.96
2023-01-31T19:07:34.470Z,1023.99
2023-01-31T19:12:32.203Z,1024.19
2023-01-31T19:17:31.502Z,1024.17
2023-01-31T19:22:33.956Z,1024.06
2023-01-31T19:27:33.492Z,1024.00
2023-01-31T19:32:38.250Z,1024.03
2023-01-31T19:37:34.563Z,1024.13
2023-01-31T19:42:34.291Z,1024.42
2023-01-31T19:47:34.876Z,1024.43
2023-01-31T19:52:36.481Z,1024.59
2023-01-31T19:57:33.973Z,1024.70
2023-01-31T20:02:35.513Z,1024.55
2023-01-31T20:07:37.496Z,1024.46
2023-01-31T20:12:35.956Z,1024.55
2023-01-31T20:17:46.209Z,1024.31
2023-01-31T20:22:35.519Z,1024.37
2023-01-31T20:27:36.907Z,1024.34
2023-01-31T20:32:36.176Z,1024.34
2023-01-31T20:37:37.869Z,1024.42
2023-01-31T20:42:37.529Z,1024.24
2023-01-31T20:47:37.876Z,1024.21
2023-01-31T20:52:38.344Z,1024.37
2023-01-31T20:57:37.215Z,1024.35
2023-01-31T21:02:37.679Z,1024.34
2023-01-31T21:07:38.530Z,1024.17
2023-01-31T21:12:40.778Z,1024.20
2023-01-31T21:17:40.777Z,1024.18
2023-01-31T21:22:39.948Z,1024.34
2023-01-31T21:27:41.351Z,1024.36
2023-01-31T21:32:42.540Z,1024.37
2023-01-31T21:37:45.106Z,1024.28
2023-01-31T21:42:44.336Z,1024.19
2023-01-31T21:47:45.498Z,1024.13
2023-01-31T21:52:46.657Z,1024.03
2023-01-31T21:57:48.811Z,1023.97
2023-01-31T22:02:48.137Z,1023.94
2023-01-31T22:07:49.358Z,1023.99
2023-01-31T22:12:50.507Z,1024.08
2023-01-31T22:17:51.697Z,1024.03
2023-01-31T22:22:53.877Z,1024.02
2023-01-31T22:27:53.088Z,1023.93
2023-01-31T22:32:55.191Z,1023.76
2023-01-31T22:37:55.427Z,1023.79
2023-01-31T22:42:56.615Z,1023.73
2023-01-31T22:47:55.785Z,1023.67
2023-01-31T22:52:56.977Z,1023.72
2023-01-31T22:57:58.181Z,1023.72
2023-01-31T23:02:59.472Z,1023.82
2023-01-31T23:08:00.664Z,1023.63
2023-01-31T23:13:02.839Z,1023.61
2023-01-31T23:18:02.953Z,1023.54
2023-01-31T23:23:02.057Z,1023.35
2023-01-31T23:28:03.238Z,1023.32
2023-01-31T23:33:04.387Z,1023.20
2023-01-31T23:38:05.517Z,1023.18
2023-01-31T23:43:08.640Z,1023.22
2023-01-31T23:48:07.752Z,1023.11
2023-01-31T23:53:08.949Z,1023.06
2023-01-31T23:58:11.019Z,1022.96
